sensor_id;sensor_type;location;lat;lon;timestamp;temperature;humidity
23335;DHT22;11839;48.598;8.870;2023-05-18T00:00:42;6.00;99.90
23335;DHT22;11839;48.598;8.870;2023-05-18T00:03:11;6.10;99.90
23335;DHT22;11839;48.598;8.870;2023-05-18T00:05:38;5.80;99.90
23335;DHT22;11839;48.598;8.870;2023-05-18T00:08:08;5.70;99.90
23335;DHT22;11839;48.598;8.870;2023-05-18T00:10:35;5.60;99.90
23335;DHT22;11839;48.598;8.870;2023-05-18T00:13:02;5.70;99.90
23335;DHT22;11839;48.598;8.870;2023-05-18T00:15:29;5.70;99.90
23335;DHT22;11839;48.598;8.870;2023-05-18T00:17:56;5.80;99.90
23335;DHT22;11839;48.598;8.870;2023-05-18T00:20:23;6.00;99.90
23335;DHT22;11839;48.598;8.870;2023-05-18T00:22:51;6.00;99.90
23335;DHT22;11839;48.598;8.870;2023-05-18T00:25:19;6.20;99.90
23335;DHT22;11839;48.598;8.870;2023-05-18T00:27:48;5.90;99.90
23335;DHT22;11839;48.598;8.870;2023-05-18T00:30:16;6.30;99.90
23335;DHT22;11839;48.598;8.870;2023-05-18T00:32:43;6.60;99.90
23335;DHT22;11839;48.598;8.870;2023-05-18T00:35:10;6.90;99.90
23335;DHT22;11839;48.598;8.870;2023-05-18T00:37:36;6.80;99.90
23335;DHT22;11839;48.598;8.870;2023-05-18T00:40:04;7.00;99.90
23335;DHT22;11839;48.598;8.870;2023-05-18T00:42:33;7.00;99.90
23335;DHT22;11839;48.598;8.870;2023-05-18T00:45:00;7.30;99.90
23335;DHT22;11839;48.598;8.870;2023-05-18T00:47:27;7.50;99.90
23335;DHT22;11839;48.598;8.870;2023-05-18T00:49:54;7.70;99.90
23335;DHT22;11839;48.598;8.870;2023-05-18T00:52:20;7.70;99.90
23335;DHT22;11839;48.598;8.870;2023-05-18T00:54:48;7.40;99.90
23335;DHT22;11839;48.598;8.870;2023-05-18T00:57:16;7.10;99.90
23335;DHT22;11839;48.598;8.870;2023-05-18T00:59:45;6.90;99.90
23335;DHT22;11839;48.598;8.870;2023-05-18T01:02:12;6.70;99.90
23335;DHT22;11839;48.598;8.870;2023-05-18T01:04:39;6.40;99.90
23335;DHT22;11839;48.598;8.870;2023-05-18T01:07:07;6.60;99.90
23335;DHT22;11839;48.598;8.870;2023-05-18T01:09:34;6.50;99.90
23335;DHT22;11839;48.598;8.870;2023-05-18T01:12:06;6.40;99.90
23335;DHT22;11839;48.598;8.870;2023-05-18T01:14:40;6.30;99.90
23335;DHT22;11839;48.598;8.870;2023-05-18T01:17:22;6.30;99.90
23335;DHT22;11839;48.598;8.870;2023-05-18T01:20:03;6.30;99.90
23335;DHT22;11839;48.598;8.870;2023-05-18T01:22:46;6.20;99.90
23335;DHT22;11839;48.598;8.870;2023-05-18T01:25:17;6.30;99.90
23335;DHT22;11839;48.598;8.870;2023-05-18T01:27:50;6.40;99.90
23335;DHT22;11839;48.598;8.870;2023-05-18T01:30:20;6.40;99.90
23335;DHT22;11839;48.598;8.870;2023-05-18T01:32:47;6.30;99.90
23335;DHT22;11839;48.598;8.870;2023-05-18T01:35:14;6.20;99.90
23335;DHT22;11839;48.598;8.870;2023-05-18T01:37:41;6.50;99.90
23335;DHT22;11839;48.598;8.870;2023-05-18T01:40:08;6.40;99.90
23335;DHT22;11839;48.598;8.870;2023-05-18T01:42:40;6.60;99.90
23335;DHT22;11839;48.598;8.870;2023-05-18T01:45:15;6.40;99.90
23335;DHT22;11839;48.598;8.870;2023-05-18T01:47:45;6.40;99.90
23335;DHT22;11839;48.598;8.870;2023-05-18T01:50:17;6.40;99.90
23335;DHT22;11839;48.598;8.870;2023-05-18T01:52:49;6.40;99.90
23335;DHT22;11839;48.598;8.870;2023-05-18T01:55:18;6.40;99.90
23335;DHT22;11839;48.598;8.870;2023-05-18T01:57:48;6.60;99.90
23335;DHT22;11839;48.598;8.870;2023-05-18T02:00:19;6.40;99.90
23335;DHT22;11839;48.598;8.870;2023-05-18T02:02:47;6.50;99.90
23335;DHT22;11839;48.598;8.870;2023-05-18T02:05:14;6.50;99.90
23335;DHT22;11839;48.598;8.870;2023-05-18T02:07:41;6.50;99.90
23335;DHT22;11839;48.598;8.870;2023-05-18T02:10:12;6.50;99.90
23335;DHT22;11839;48.598;8.870;2023-05-18T02:12:39;6.40;99.90
23335;DHT22;11839;48.598;8.870;2023-05-18T02:15:07;6.60;99.90
23335;DHT22;11839;48.598;8.870;2023-05-18T02:17:35;6.70;99.90
23335;DHT22;11839;48.598;8.870;2023-05-18T02:20:04;6.60;99.90
23335;DHT22;11839;48.598;8.870;2023-05-18T02:22:32;6.60;99.90
23335;DHT22;11839;48.598;8.870;2023-05-18T02:24:59;6.60;99.90
23335;DHT22;11839;48.598;8.870;2023-05-18T02:27:26;6.80;99.90
23335;DHT22;11839;48.598;8.870;2023-05-18T02:29:53;6.80;99.90
23335;DHT22;11839;48.598;8.870;2023-05-18T02:32:21;6.90;99.90
23335;DHT22;11839;48.598;8.870;2023-05-18T02:34:52;7.00;99.90
23335;DHT22;11839;48.598;8.870;2023-05-18T02:37:18;7.10;99.90
23335;DHT22;11839;48.598;8.870;2023-05-18T02:39:47;6.90;99.90
23335;DHT22;11839;48.598;8.870;2023-05-18T02:42:14;7.20;99.90
23335;DHT22;11839;48.598;8.870;2023-05-18T02:44:41;7.40;99.90
23335;DHT22;11839;48.598;8.870;2023-05-18T02:47:08;7.60;99.90
23335;DHT22;11839;48.598;8.870;2023-05-18T02:49:35;7.40;99.90
23335;DHT22;11839;48.598;8.870;2023-05-18T02:52:03;7.60;99.90
23335;DHT22;11839;48.598;8.870;2023-05-18T02:54:30;7.40;99.90
23335;DHT22;11839;48.598;8.870;2023-05-18T02:56:57;7.00;99.90
23335;DHT22;11839;48.598;8.870;2023-05-18T02:59:24;6.70;99.90
23335;DHT22;11839;48.598;8.870;2023-05-18T03:01:50;6.90;99.90
23335;DHT22;11839;48.598;8.870;2023-05-18T03:04:17;6.90;99.90
23335;DHT22;11839;48.598;8.870;2023-05-18T03:06:44;6.70;99.90
23335;DHT22;11839;48.598;8.870;2023-05-18T03:09:13;7.00;99.90
23335;DHT22;11839;48.598;8.870;2023-05-18T03:11:41;7.10;99.90
23335;DHT22;11839;48.598;8.870;2023-05-18T03:14:07;7.20;99.90
23335;DHT22;11839;48.598;8.870;2023-05-18T03:16:34;7.60;99.90
23335;DHT22;11839;48.598;8.870;2023-05-18T03:19:03;7.60;99.90
23335;DHT22;11839;48.598;8.870;2023-05-18T03:21:30;7.70;99.90
23335;DHT22;11839;48.598;8.870;2023-05-18T03:24:01;7.30;99.90
23335;DHT22;11839;48.598;8.870;2023-05-18T03:26:29;7.30;99.90
23335;DHT22;11839;48.598;8.870;2023-05-18T03:28:56;7.20;99.90
23335;DHT22;11839;48.598;8.870;2023-05-18T03:31:24;7.10;99.90
23335;DHT22;11839;48.598;8.870;2023-05-18T03:33:51;7.40;99.90
23335;DHT22;11839;48.598;8.870;2023-05-18T03:36:18;7.80;99.90
23335;DHT22;11839;48.598;8.870;2023-05-18T03:38:46;7.70;99.90
23335;DHT22;11839;48.598;8.870;2023-05-18T03:41:13;7.90;99.90
23335;DHT22;11839;48.598;8.870;2023-05-18T03:43:41;7.30;99.90
23335;DHT22;11839;48.598;8.870;2023-05-18T03:46:08;7.10;99.90
23335;DHT22;11839;48.598;8.870;2023-05-18T03:48:35;7.10;99.90
23335;DHT22;11839;48.598;8.870;2023-05-18T03:51:02;7.20;99.90
23335;DHT22;11839;48.598;8.870;2023-05-18T03:53:30;7.20;99.90
23335;DHT22;11839;48.598;8.870;2023-05-18T03:55:58;7.40;99.90
23335;DHT22;11839;48.598;8.870;2023-05-18T03:58:25;7.30;99.90
23335;DHT22;11839;48.598;8.870;2023-05-18T04:00:53;7.40;99.90
23335;DHT22;11839;48.598;8.870;2023-05-18T04:03:20;7.40;99.90
23335;DHT22;11839;48.598;8.870;2023-05-18T04:05:49;7.40;99.90
23335;DHT22;11839;48.598;8.870;2023-05-18T04:08:17;7.40;99.90
23335;DHT22;11839;48.598;8.870;2023-05-18T04:10:44;7.50;99.90
23335;DHT22;11839;48.598;8.870;2023-05-18T04:13:11;7.50;99.90
23335;DHT22;11839;48.598;8.870;2023-05-18T04:15:38;7.70;99.90
23335;DHT22;11839;48.598;8.870;2023-05-18T04:18:07;7.90;99.90
23335;DHT22;11839;48.598;8.870;2023-05-18T04:20:34;7.70;99.90
23335;DHT22;11839;48.598;8.870;2023-05-18T04:23:02;7.40;99.90
23335;DHT22;11839;48.598;8.870;2023-05-18T04:25:29;7.30;99.90
23335;DHT22;11839;48.598;8.870;2023-05-18T04:27:56;7.40;99.90
23335;DHT22;11839;48.598;8.870;2023-05-18T04:30:25;7.50;99.90
23335;DHT22;11839;48.598;8.870;2023-05-18T04:32:54;7.40;99.90
23335;DHT22;11839;48.598;8.870;2023-05-18T04:35:24;7.50;99.90
23335;DHT22;11839;48.598;8.870;2023-05-18T04:37:51;7.20;99.90
23335;DHT22;11839;48.598;8.870;2023-05-18T04:40:19;7.10;99.90
23335;DHT22;11839;48.598;8.870;2023-05-18T04:42:46;7.20;99.90
23335;DHT22;11839;48.598;8.870;2023-05-18T04:45:13;7.30;99.90
23335;DHT22;11839;48.598;8.870;2023-05-18T04:47:42;7.20;99.90
23335;DHT22;11839;48.598;8.870;2023-05-18T04:50:12;7.10;99.90
23335;DHT22;11839;48.598;8.870;2023-05-18T04:52:41;7.20;99.90
23335;DHT22;11839;48.598;8.870;2023-05-18T04:55:13;7.20;99.90
23335;DHT22;11839;48.598;8.870;2023-05-18T04:57:40;7.10;99.90
23335;DHT22;11839;48.598;8.870;2023-05-18T05:00:10;7.20;99.90
23335;DHT22;11839;48.598;8.870;2023-05-18T05:02:37;7.40;99.90
23335;DHT22;11839;48.598;8.870;2023-05-18T05:05:04;7.50;99.90
23335;DHT22;11839;48.598;8.870;2023-05-18T05:07:31;7.50;99.90
23335;DHT22;11839;48.598;8.870;2023-05-18T05:10:00;7.40;99.90
23335;DHT22;11839;48.598;8.870;2023-05-18T05:12:26;7.20;99.90
23335;DHT22;11839;48.598;8.870;2023-05-18T05:14:53;7.30;99.90
23335;DHT22;11839;48.598;8.870;2023-05-18T05:17:21;7.20;99.90
23335;DHT22;11839;48.598;8.870;2023-05-18T05:19:48;7.30;99.90
23335;DHT22;11839;48.598;8.870;2023-05-18T05:22:15;7.30;99.90
23335;DHT22;11839;48.598;8.870;2023-05-18T05:24:44;7.30;99.90
23335;DHT22;11839;48.598;8.870;2023-05-18T05:27:12;7.40;99.90
23335;DHT22;11839;48.598;8.870;2023-05-18T05:29:39;7.40;99.90
23335;DHT22;11839;48.598;8.870;2023-05-18T05:32:07;7.50;99.90
23335;DHT22;11839;48.598;8.870;2023-05-18T05:34:34;7.80;99.90
23335;DHT22;11839;48.598;8.870;2023-05-18T05:37:02;7.70;99.90
23335;DHT22;11839;48.598;8.870;2023-05-18T05:39:28;7.80;99.90
23335;DHT22;11839;48.598;8.870;2023-05-18T05:41:55;8.00;99.90
23335;DHT22;11839;48.598;8.870;2023-05-18T05:44:24;8.20;99.90
23335;DHT22;11839;48.598;8.870;2023-05-18T05:46:50;8.30;99.90
23335;DHT22;11839;48.598;8.870;2023-05-18T05:49:17;8.50;99.90
23335;DHT22;11839;48.598;8.870;2023-05-18T05:51:44;8.50;99.90
23335;DHT22;11839;48.598;8.870;2023-05-18T05:54:11;8.50;99.90
23335;DHT22;11839;48.598;8.870;2023-05-18T05:56:37;8.50;99.90
23335;DHT22;11839;48.598;8.870;2023-05-18T05:59:04;8.90;99.90
23335;DHT22;11839;48.598;8.870;2023-05-18T06:01:32;9.00;99.90
23335;DHT22;11839;48.598;8.870;2023-05-18T06:04:00;8.80;99.90
23335;DHT22;11839;48.598;8.870;2023-05-18T06:06:28;8.80;99.90
23335;DHT22;11839;48.598;8.870;2023-05-18T06:08:56;8.70;99.90
23335;DHT22;11839;48.598;8.870;2023-05-18T06:11:30;8.80;99.90
23335;DHT22;11839;48.598;8.870;2023-05-18T06:13:57;9.10;99.90
23335;DHT22;11839;48.598;8.870;2023-05-18T06:16:24;9.20;99.90
23335;DHT22;11839;48.598;8.870;2023-05-18T06:18:52;9.20;99.90
23335;DHT22;11839;48.598;8.870;2023-05-18T06:21:19;9.30;99.90
23335;DHT22;11839;48.598;8.870;2023-05-18T06:23:46;9.50;99.90
23335;DHT22;11839;48.598;8.870;2023-05-18T06:26:13;9.80;99.90
23335;DHT22;11839;48.598;8.870;2023-05-18T06:28:40;10.10;99.90
23335;DHT22;11839;48.598;8.870;2023-05-18T06:31:06;9.80;99.90
23335;DHT22;11839;48.598;8.870;2023-05-18T06:33:33;10.10;99.90
23335;DHT22;11839;48.598;8.870;2023-05-18T06:36:02;10.30;99.90
23335;DHT22;11839;48.598;8.870;2023-05-18T06:38:29;10.30;99.90
23335;DHT22;11839;48.598;8.870;2023-05-18T06:40:55;10.60;99.90
23335;DHT22;11839;48.598;8.870;2023-05-18T06:43:22;10.70;99.90
23335;DHT22;11839;48.598;8.870;2023-05-18T06:45:51;10.60;99.90
23335;DHT22;11839;48.598;8.870;2023-05-18T06:48:18;10.90;99.90
23335;DHT22;11839;48.598;8.870;2023-05-18T06:50:45;11.00;99.90
23335;DHT22;11839;48.598;8.870;2023-05-18T06:53:13;11.00;99.90
23335;DHT22;11839;48.598;8.870;2023-05-18T06:55:40;11.20;99.90
23335;DHT22;11839;48.598;8.870;2023-05-18T06:58:07;11.10;99.90
23335;DHT22;11839;48.598;8.870;2023-05-18T07:00:33;11.30;99.90
23335;DHT22;11839;48.598;8.870;2023-05-18T07:03:00;11.40;99.90
23335;DHT22;11839;48.598;8.870;2023-05-18T07:05:27;11.40;99.90
23335;DHT22;11839;48.598;8.870;2023-05-18T07:07:54;11.60;99.90
23335;DHT22;11839;48.598;8.870;2023-05-18T07:10:22;11.90;99.90
23335;DHT22;11839;48.598;8.870;2023-05-18T07:12:49;12.20;99.90
23335;DHT22;11839;48.598;8.870;2023-05-18T07:15:16;12.30;99.90
23335;DHT22;11839;48.598;8.870;2023-05-18T07:17:44;12.30;99.90
23335;DHT22;11839;48.598;8.870;2023-05-18T07:20:11;12.30;99.90
23335;DHT22;11839;48.598;8.870;2023-05-18T07:22:37;12.40;99.90
23335;DHT22;11839;48.598;8.870;2023-05-18T07:25:04;12.60;99.90
23335;DHT22;11839;48.598;8.870;2023-05-18T07:27:33;13.00;99.90
23335;DHT22;11839;48.598;8.870;2023-05-18T07:29:59;13.00;99.90
23335;DHT22;11839;48.598;8.870;2023-05-18T07:32:26;13.20;99.90
23335;DHT22;11839;48.598;8.870;2023-05-18T07:34:53;12.90;99.90
23335;DHT22;11839;48.598;8.870;2023-05-18T07:37:20;13.00;99.90
23335;DHT22;11839;48.598;8.870;2023-05-18T07:39:47;13.00;99.90
23335;DHT22;11839;48.598;8.870;2023-05-18T07:42:14;13.20;99.90
23335;DHT22;11839;48.598;8.870;2023-05-18T07:44:42;13.20;99.90
23335;DHT22;11839;48.598;8.870;2023-05-18T07:47:08;13.80;99.80
23335;DHT22;11839;48.598;8.870;2023-05-18T07:49:36;14.10;99.10
23335;DHT22;11839;48.598;8.870;2023-05-18T07:52:04;14.50;98.50
23335;DHT22;11839;48.598;8.870;2023-05-18T07:54:31;14.60;98.80
23335;DHT22;11839;48.598;8.870;2023-05-18T07:56:57;14.60;98.30
23335;DHT22;11839;48.598;8.870;2023-05-18T07:59:24;15.00;98.20
23335;DHT22;11839;48.598;8.870;2023-05-18T08:01:52;15.20;97.80
23335;DHT22;11839;48.598;8.870;2023-05-18T08:04:19;15.40;97.60
23335;DHT22;11839;48.598;8.870;2023-05-18T08:06:46;15.40;97.30
23335;DHT22;11839;48.598;8.870;2023-05-18T08:09:13;15.10;97.40
23335;DHT22;11839;48.598;8.870;2023-05-18T08:11:41;14.60;97.20
23335;DHT22;11839;48.598;8.870;2023-05-18T08:14:07;14.80;98.30
23335;DHT22;11839;48.598;8.870;2023-05-18T08:16:34;15.30;97.50
23335;DHT22;11839;48.598;8.870;2023-05-18T08:19:03;14.90;97.60
23335;DHT22;11839;48.598;8.870;2023-05-18T08:21:30;14.60;97.10
23335;DHT22;11839;48.598;8.870;2023-05-18T08:23:57;14.80;97.60
23335;DHT22;11839;48.598;8.870;2023-05-18T08:26:24;15.10;97.70
23335;DHT22;11839;48.598;8.870;2023-05-18T08:28:51;15.10;97.60
23335;DHT22;11839;48.598;8.870;2023-05-18T08:31:18;15.10;97.50
23335;DHT22;11839;48.598;8.870;2023-05-18T08:33:45;15.60;96.90
23335;DHT22;11839;48.598;8.870;2023-05-18T08:36:14;14.80;97.00
23335;DHT22;11839;48.598;8.870;2023-05-18T08:38:41;14.50;97.90
23335;DHT22;11839;48.598;8.870;2023-05-18T08:41:14;14.80;97.90
23335;DHT22;11839;48.598;8.870;2023-05-18T08:43:47;14.60;97.30
23335;DHT22;11839;48.598;8.870;2023-05-18T08:46:20;14.50;97.90
23335;DHT22;11839;48.598;8.870;2023-05-18T08:48:51;14.70;97.50
23335;DHT22;11839;48.598;8.870;2023-05-18T08:51:20;14.80;97.30
23335;DHT22;11839;48.598;8.870;2023-05-18T08:53:51;14.80;97.60
23335;DHT22;11839;48.598;8.870;2023-05-18T08:56:21;14.60;97.30
23335;DHT22;11839;48.598;8.870;2023-05-18T08:58:51;14.40;97.00
23335;DHT22;11839;48.598;8.870;2023-05-18T09:01:20;14.20;97.80
23335;DHT22;11839;48.598;8.870;2023-05-18T09:03:48;14.50;97.50
23335;DHT22;11839;48.598;8.870;2023-05-18T09:06:17;14.90;97.30
23335;DHT22;11839;48.598;8.870;2023-05-18T09:08:46;15.60;96.40
23335;DHT22;11839;48.598;8.870;2023-05-18T09:11:14;15.90;95.80
23335;DHT22;11839;48.598;8.870;2023-05-18T09:13:42;16.10;96.10
23335;DHT22;11839;48.598;8.870;2023-05-18T09:16:09;16.30;95.10
23335;DHT22;11839;48.598;8.870;2023-05-18T09:18:36;17.00;95.20
23335;DHT22;11839;48.598;8.870;2023-05-18T09:21:03;17.80;94.90
23335;DHT22;11839;48.598;8.870;2023-05-18T09:23:30;17.80;93.70
23335;DHT22;11839;48.598;8.870;2023-05-18T09:25:59;17.70;93.80
23335;DHT22;11839;48.598;8.870;2023-05-18T09:28:34;17.70;93.50
23335;DHT22;11839;48.598;8.870;2023-05-18T09:31:02;17.20;93.50
23335;DHT22;11839;48.598;8.870;2023-05-18T09:33:32;16.80;94.20
23335;DHT22;11839;48.598;8.870;2023-05-18T09:36:00;16.70;94.40
23335;DHT22;11839;48.598;8.870;2023-05-18T09:38:27;16.30;93.70
23335;DHT22;11839;48.598;8.870;2023-05-18T09:40:54;16.60;94.60
23335;DHT22;11839;48.598;8.870;2023-05-18T09:43:22;17.30;93.50
23335;DHT22;11839;48.598;8.870;2023-05-18T09:45:49;17.70;92.60
23335;DHT22;11839;48.598;8.870;2023-05-18T09:48:16;18.40;92.20
23335;DHT22;11839;48.598;8.870;2023-05-18T09:50:43;18.60;91.40
23335;DHT22;11839;48.598;8.870;2023-05-18T09:53:11;17.50;92.00
23335;DHT22;11839;48.598;8.870;2023-05-18T09:55:44;17.70;92.60
23335;DHT22;11839;48.598;8.870;2023-05-18T09:58:12;18.50;92.30
23335;DHT22;11839;48.598;8.870;2023-05-18T10:00:42;19.30;91.00
23335;DHT22;11839;48.598;8.870;2023-05-18T10:03:17;20.00;89.30
23335;DHT22;11839;48.598;8.870;2023-05-18T10:05:45;19.30;89.20
23335;DHT22;11839;48.598;8.870;2023-05-18T10:08:12;18.90;90.20
23335;DHT22;11839;48.598;8.870;2023-05-18T10:10:42;18.20;90.10
23335;DHT22;11839;48.598;8.870;2023-05-18T10:13:12;18.00;90.70
23335;DHT22;11839;48.598;8.870;2023-05-18T10:15:54;17.20;91.70
23335;DHT22;11839;48.598;8.870;2023-05-18T10:18:23;16.70;91.90
23335;DHT22;11839;48.598;8.870;2023-05-18T10:20:51;16.50;92.10
23335;DHT22;11839;48.598;8.870;2023-05-18T10:23:20;17.20;92.80
23335;DHT22;11839;48.598;8.870;2023-05-18T10:25:49;17.20;91.00
23335;DHT22;11839;48.598;8.870;2023-05-18T10:28:19;16.90;92.60
23335;DHT22;11839;48.598;8.870;2023-05-18T10:30:53;17.10;92.40
23335;DHT22;11839;48.598;8.870;2023-05-18T10:33:21;17.90;91.90
23335;DHT22;11839;48.598;8.870;2023-05-18T10:35:49;18.80;91.00
23335;DHT22;11839;48.598;8.870;2023-05-18T10:38:20;19.30;90.50
23335;DHT22;11839;48.598;8.870;2023-05-18T10:40:48;18.10;89.90
23335;DHT22;11839;48.598;8.870;2023-05-18T10:43:19;17.50;90.30
23335;DHT22;11839;48.598;8.870;2023-05-18T10:45:47;17.40;91.30
23335;DHT22;11839;48.598;8.870;2023-05-18T10:48:18;17.90;90.50
23335;DHT22;11839;48.598;8.870;2023-05-18T10:50:47;18.20;90.00
23335;DHT22;11839;48.598;8.870;2023-05-18T10:53:16;18.00;90.40
23335;DHT22;11839;48.598;8.870;2023-05-18T10:55:44;17.20;90.00
23335;DHT22;11839;48.598;8.870;2023-05-18T10:58:14;17.20;90.40
23335;DHT22;11839;48.598;8.870;2023-05-18T11:00:43;17.40;90.60
23335;DHT22;11839;48.598;8.870;2023-05-18T11:03:13;17.90;90.30
23335;DHT22;11839;48.598;8.870;2023-05-18T11:05:41;17.70;89.40
23335;DHT22;11839;48.598;8.870;2023-05-18T11:08:08;17.40;89.50
23335;DHT22;11839;48.598;8.870;2023-05-18T11:10:39;17.90;90.20
23335;DHT22;11839;48.598;8.870;2023-05-18T11:13:08;18.10;89.80
23335;DHT22;11839;48.598;8.870;2023-05-18T11:16:06;17.90;89.30
23335;DHT22;11839;48.598;8.870;2023-05-18T11:18:38;17.80;89.20
23335;DHT22;11839;48.598;8.870;2023-05-18T11:21:52;18.10;90.10
23335;DHT22;11839;48.598;8.870;2023-05-18T11:24:23;18.50;88.00
23335;DHT22;11839;48.598;8.870;2023-05-18T11:26:52;18.90;86.70
23335;DHT22;11839;48.598;8.870;2023-05-18T11:29:22;18.50;88.00
23335;DHT22;11839;48.598;8.870;2023-05-18T11:31:51;18.30;87.40
23335;DHT22;11839;48.598;8.870;2023-05-18T11:34:41;18.20;90.00
23335;DHT22;11839;48.598;8.870;2023-05-18T11:37:11;18.20;86.70
23335;DHT22;11839;48.598;8.870;2023-05-18T11:39:38;17.90;88.00
23335;DHT22;11839;48.598;8.870;2023-05-18T11:42:07;18.50;88.60
23335;DHT22;11839;48.598;8.870;2023-05-18T11:44:34;18.70;86.40
23335;DHT22;11839;48.598;8.870;2023-05-18T11:47:02;18.50;85.80
23335;DHT22;11839;48.598;8.870;2023-05-18T11:49:30;18.20;86.00
23335;DHT22;11839;48.598;8.870;2023-05-18T11:52:03;18.40;86.40
23335;DHT22;11839;48.598;8.870;2023-05-18T11:54:50;18.60;86.00
23335;DHT22;11839;48.598;8.870;2023-05-18T11:57:18;18.50;85.40
23335;DHT22;11839;48.598;8.870;2023-05-18T11:59:47;19.00;84.20
23335;DHT22;11839;48.598;8.870;2023-05-18T12:02:18;19.50;84.10
23335;DHT22;11839;48.598;8.870;2023-05-18T12:04:46;19.40;83.60
23335;DHT22;11839;48.598;8.870;2023-05-18T12:07:15;19.10;84.20
23335;DHT22;11839;48.598;8.870;2023-05-18T12:09:43;19.00;85.40
23335;DHT22;11839;48.598;8.870;2023-05-18T12:12:14;19.10;84.30
23335;DHT22;11839;48.598;8.870;2023-05-18T12:14:46;18.60;83.70
23335;DHT22;11839;48.598;8.870;2023-05-18T12:17:14;18.60;84.30
23335;DHT22;11839;48.598;8.870;2023-05-18T12:19:42;18.60;83.60
23335;DHT22;11839;48.598;8.870;2023-05-18T12:22:10;18.40;84.70
23335;DHT22;11839;48.598;8.870;2023-05-18T12:24:37;18.20;85.30
23335;DHT22;11839;48.598;8.870;2023-05-18T12:27:05;18.20;84.70
23335;DHT22;11839;48.598;8.870;2023-05-18T12:29:37;17.90;84.90
23335;DHT22;11839;48.598;8.870;2023-05-18T12:32:06;18.20;85.90
23335;DHT22;11839;48.598;8.870;2023-05-18T12:34:34;18.80;85.10
23335;DHT22;11839;48.598;8.870;2023-05-18T12:37:01;19.60;82.00
23335;DHT22;11839;48.598;8.870;2023-05-18T12:39:28;20.00;82.40
23335;DHT22;11839;48.598;8.870;2023-05-18T12:42:08;19.00;83.20
23335;DHT22;11839;48.598;8.870;2023-05-18T12:44:37;18.40;84.10
23335;DHT22;11839;48.598;8.870;2023-05-18T12:47:04;18.30;85.80
23335;DHT22;11839;48.598;8.870;2023-05-18T12:49:35;18.60;83.70
23335;DHT22;11839;48.598;8.870;2023-05-18T12:52:13;18.80;82.70
23335;DHT22;11839;48.598;8.870;2023-05-18T12:54:51;19.60;83.20
23335;DHT22;11839;48.598;8.870;2023-05-18T12:57:23;19.60;82.00
23335;DHT22;11839;48.598;8.870;2023-05-18T12:59:57;19.50;81.00
23335;DHT22;11839;48.598;8.870;2023-05-18T13:02:30;19.00;83.00
23335;DHT22;11839;48.598;8.870;2023-05-18T13:05:04;19.10;83.10
23335;DHT22;11839;48.598;8.870;2023-05-18T13:07:33;20.10;81.60
23335;DHT22;11839;48.598;8.870;2023-05-18T13:10:01;20.40;79.60
23335;DHT22;11839;48.598;8.870;2023-05-18T13:12:43;20.20;80.60
23335;DHT22;11839;48.598;8.870;2023-05-18T13:15:14;19.60;80.20
23335;DHT22;11839;48.598;8.870;2023-05-18T13:17:53;19.10;82.00
23335;DHT22;11839;48.598;8.870;2023-05-18T13:20:21;18.90;82.10
23335;DHT22;11839;48.598;8.870;2023-05-18T13:22:48;19.30;82.20
23335;DHT22;11839;48.598;8.870;2023-05-18T13:25:15;20.40;79.40
23335;DHT22;11839;48.598;8.870;2023-05-18T13:27:42;21.10;76.70
23335;DHT22;11839;48.598;8.870;2023-05-18T13:30:13;20.10;77.10
23335;DHT22;11839;48.598;8.870;2023-05-18T13:32:39;20.50;78.90
23335;DHT22;11839;48.598;8.870;2023-05-18T13:35:07;19.80;79.10
23335;DHT22;11839;48.598;8.870;2023-05-18T13:37:34;20.00;79.80
23335;DHT22;11839;48.598;8.870;2023-05-18T13:40:01;19.40;80.00
23335;DHT22;11839;48.598;8.870;2023-05-18T13:42:28;18.50;79.70
23335;DHT22;11839;48.598;8.870;2023-05-18T13:44:54;18.60;81.30
23335;DHT22;11839;48.598;8.870;2023-05-18T13:47:23;18.70;80.80
23335;DHT22;11839;48.598;8.870;2023-05-18T13:49:49;18.60;82.30
23335;DHT22;11839;48.598;8.870;2023-05-18T13:52:16;18.60;81.70
23335;DHT22;11839;48.598;8.870;2023-05-18T13:54:43;18.40;81.30
23335;DHT22;11839;48.598;8.870;2023-05-18T13:57:10;18.60;81.70
23335;DHT22;11839;48.598;8.870;2023-05-18T13:59:36;18.70;81.60
23335;DHT22;11839;48.598;8.870;2023-05-18T14:02:03;18.40;80.70
23335;DHT22;11839;48.598;8.870;2023-05-18T14:04:32;18.60;80.40
23335;DHT22;11839;48.598;8.870;2023-05-18T14:06:58;18.70;81.80
23335;DHT22;11839;48.598;8.870;2023-05-18T14:09:25;18.80;81.80
23335;DHT22;11839;48.598;8.870;2023-05-18T14:11:52;18.70;81.10
23335;DHT22;11839;48.598;8.870;2023-05-18T14:14:19;19.20;81.60
23335;DHT22;11839;48.598;8.870;2023-05-18T14:16:46;19.30;81.50
23335;DHT22;11839;48.598;8.870;2023-05-18T14:19:13;19.50;81.00
23335;DHT22;11839;48.598;8.870;2023-05-18T14:21:41;20.10;80.80
23335;DHT22;11839;48.598;8.870;2023-05-18T14:24:08;20.10;79.90
23335;DHT22;11839;48.598;8.870;2023-05-18T14:26:35;19.50;80.90
23335;DHT22;11839;48.598;8.870;2023-05-18T14:29:02;18.80;81.50
23335;DHT22;11839;48.598;8.870;2023-05-18T14:31:29;18.70;82.30
23335;DHT22;11839;48.598;8.870;2023-05-18T14:33:55;19.10;80.70
23335;DHT22;11839;48.598;8.870;2023-05-18T14:36:22;19.20;81.10
23335;DHT22;11839;48.598;8.870;2023-05-18T14:38:51;19.70;80.30
23335;DHT22;11839;48.598;8.870;2023-05-18T14:41:17;19.90;80.40
23335;DHT22;11839;48.598;8.870;2023-05-18T14:43:45;20.30;80.00
23335;DHT22;11839;48.598;8.870;2023-05-18T14:46:15;20.20;79.40
23335;DHT22;11839;48.598;8.870;2023-05-18T14:48:42;19.70;79.30
23335;DHT22;11839;48.598;8.870;2023-05-18T14:51:09;19.40;81.20
23335;DHT22;11839;48.598;8.870;2023-05-18T14:53:35;19.20;80.30
23335;DHT22;11839;48.598;8.870;2023-05-18T14:56:04;19.00;80.80
23335;DHT22;11839;48.598;8.870;2023-05-18T14:58:33;18.90;80.10
23335;DHT22;11839;48.598;8.870;2023-05-18T15:01:01;18.60;80.20
23335;DHT22;11839;48.598;8.870;2023-05-18T15:03:27;18.70;80.40
23335;DHT22;11839;48.598;8.870;2023-05-18T15:05:54;18.60;80.70
23335;DHT22;11839;48.598;8.870;2023-05-18T15:08:21;18.90;79.70
23335;DHT22;11839;48.598;8.870;2023-05-18T15:10:48;19.10;79.70
23335;DHT22;11839;48.598;8.870;2023-05-18T15:13:16;18.80;80.00
23335;DHT22;11839;48.598;8.870;2023-05-18T15:15:43;18.60;80.60
23335;DHT22;11839;48.598;8.870;2023-05-18T15:18:10;19.00;80.70
23335;DHT22;11839;48.598;8.870;2023-05-18T15:20:37;19.20;80.50
23335;DHT22;11839;48.598;8.870;2023-05-18T15:23:06;18.60;81.00
23335;DHT22;11839;48.598;8.870;2023-05-18T15:25:33;18.60;81.50
23335;DHT22;11839;48.598;8.870;2023-05-18T15:28:00;18.60;80.30
23335;DHT22;11839;48.598;8.870;2023-05-18T15:30:28;18.60;81.00
23335;DHT22;11839;48.598;8.870;2023-05-18T15:32:55;19.00;81.60
23335;DHT22;11839;48.598;8.870;2023-05-18T15:35:22;19.20;79.80
23335;DHT22;11839;48.598;8.870;2023-05-18T15:37:49;19.40;80.30
23335;DHT22;11839;48.598;8.870;2023-05-18T15:40:16;19.50;79.50
23335;DHT22;11839;48.598;8.870;2023-05-18T15:42:43;19.40;80.40
23335;DHT22;11839;48.598;8.870;2023-05-18T15:45:11;19.00;79.90